Terminal Aerodrome Forecast
Issued by NWS Jacksonville, FL

Home | Current Version | Previous Version | Text Only | Print | Product List | Glossary On
Versions: 1 2 3 4 5 6 7 8 9 10 11 12 13 14 15 16 17 18 19 20 21 22 23 24 25 26 27 28
000
FTUS42 KJAX 220500 RRA
TAFGNV
TAF
KGNV 220543Z 2206/2306 VRB03KT P6SM SCT120 BKN250
     FM222000 27005KT P6SM VCTS SCT040CB
     FM230000 23003KT P6SM SCT250=

USA.gov is the U.S. government's official web portal to all federal, state and local government web resources and services.